Time;durP1;ratioP1;P1;durP2;ratioP2;P2;SDS_P1;SDS_P2;PMS_P1;PMS_P2;Temp;Humidity;BMP_temperature;BMP_pressure;BME280_temperature;BME280_humidity;BME280_pressure;Samples;Min_cycle;Max_cycle;Signal;HPM_P1;HPM_P2
2022/08/05 00:00:20;;;;;;;20.63;11.18;;;27.80;47.60;;;;;;5031981;28;20105;-72
2022/08/05 00:02:47;;;;;;;12.75;8.38;;;27.80;47.60;;;;;;5032104;28;20481;-74
2022/08/05 00:05:12;;;;;;;16.30;9.73;;;27.80;47.60;;;;;;5014334;28;20397;-74
2022/08/05 00:07:38;;;;;;;20.23;9.82;;;27.70;47.20;;;;;;5031948;28;20037;-74
2022/08/05 00:10:04;;;;;;;22.92;16.50;;;27.70;47.20;;;;;;5026276;28;20057;-74
2022/08/05 00:12:30;;;;;;;30.15;23.08;;;27.60;47.30;;;;;;5023787;28;20053;-74
2022/08/05 00:14:56;;;;;;;40.38;32.90;;;27.60;47.40;;;;;;5028807;28;20064;-74
2022/08/05 00:17:22;;;;;;;32.92;26.25;;;27.60;47.30;;;;;;5030660;28;20043;-74
2022/08/05 00:19:47;;;;;;;28.55;19.02;;;27.60;47.40;;;;;;5029625;28;20033;-75
2022/08/05 00:22:13;;;;;;;24.38;13.65;;;27.50;47.40;;;;;;5014918;28;20033;-75
2022/08/05 00:24:40;;;;;;;13.23;7.95;;;27.60;47.70;;;;;;5021861;28;20022;-74
2022/08/05 00:27:06;;;;;;;15.85;8.38;;;27.60;47.70;;;;;;4993386;28;20411;-75
2022/08/05 00:29:32;;;;;;;9.18;5.45;;;27.50;47.80;;;;;;5005045;28;20497;-74
2022/08/05 00:31:57;;;;;;;12.82;5.03;;;27.50;47.60;;;;;;5026556;28;20034;-72
2022/08/05 00:34:23;;;;;;;9.27;4.43;;;27.60;47.40;;;;;;5033558;28;20473;-72
2022/08/05 00:36:49;;;;;;;9.57;4.30;;;27.60;47.20;;;;;;5012427;28;20048;-72
2022/08/05 00:39:15;;;;;;;8.60;4.28;;;27.60;46.90;;;;;;5012617;28;20030;-72
2022/08/05 00:41:46;;;;;;;6.75;4.30;;;27.60;47.00;;;;;;5013868;28;20546;-72
2022/08/05 00:44:12;;;;;;;7.55;4.25;;;27.60;47.00;;;;;;4996447;28;20046;-71
2022/08/05 00:46:37;;;;;;;10.32;4.03;;;27.60;46.90;;;;;;5013156;28;20030;-72
2022/08/05 00:49:03;;;;;;;6.25;4.05;;;27.60;46.80;;;;;;5013765;28;20026;-72
2022/08/05 00:51:29;;;;;;;10.15;4.38;;;27.60;46.90;;;;;;5013608;28;20101;-71
2022/08/05 00:53:55;;;;;;;7.75;4.03;;;27.60;47.10;;;;;;4980074;28;20359;-71
2022/08/05 00:56:21;;;;;;;5.35;3.72;;;27.60;47.30;;;;;;5013186;28;20474;-71
2022/08/05 00:58:47;;;;;;;8.57;4.47;;;27.60;47.40;;;;;;5011901;28;20638;-72
2022/08/05 01:01:16;;;;;;;13.63;4.20;;;27.50;47.30;;;;;;4992502;28;20031;-72
2022/08/05 01:03:42;;;;;;;7.47;4.57;;;27.50;47.60;;;;;;5003844;28;20025;-73
2022/08/05 01:06:10;;;;;;;7.90;4.05;;;27.50;47.50;;;;;;4992469;28;20165;-72
2022/08/05 01:08:35;;;;;;;7.65;4.38;;;27.50;47.80;;;;;;5005754;28;20029;-72
2022/08/05 01:11:21;;;;;;;6.65;4.10;;;27.50;47.60;;;;;;5013198;28;20022;-71
2022/08/05 01:13:50;;;;;;;12.13;4.93;;;27.50;47.70;;;;;;5013236;28;20030;-72
2022/08/05 01:16:23;;;;;;;6.97;4.20;;;27.40;47.70;;;;;;5012773;28;20029;-72
2022/08/05 01:18:56;;;;;;;6.85;4.88;;;27.30;47.80;;;;;;5013301;28;20025;-72
2022/08/05 01:21:40;;;;;;;10.98;5.93;;;27.30;48.10;;;;;;5012639;28;20044;-72
2022/08/05 01:24:06;;;;;;;13.23;6.55;;;27.10;49.60;;;;;;5013607;28;20079;-71
2022/08/05 01:26:55;;;;;;;15.25;6.22;;;26.80;51.30;;;;;;5011354;28;20120;-72
2022/08/05 01:29:33;;;;;;;;;;;26.70;52.00;;;;;;4986036;28;20030;-71
2022/08/05 01:32:03;;;;;;;11.55;6.20;;;26.80;52.20;;;;;;4993236;28;20384;-71
2022/08/05 01:34:47;;;;;;;13.05;5.60;;;26.70;52.90;;;;;;4992221;28;20034;-72
2022/08/05 01:37:28;;;;;;;12.35;5.88;;;26.70;53.20;;;;;;4998813;28;20108;-71
2022/08/05 01:39:57;;;;;;;12.30;6.28;;;26.50;53.80;;;;;;5012869;28;20028;-72
2022/08/05 01:42:25;;;;;;;11.93;5.97;;;26.40;54.40;;;;;;5011384;28;20029;-72
2022/08/05 01:44:54;;;;;;;13.13;5.50;;;26.50;54.00;;;;;;5008836;28;20022;-72
2022/08/05 01:47:22;;;;;;;12.00;6.18;;;26.60;54.10;;;;;;5020434;28;20030;-71
2022/08/05 01:49:50;;;;;;;13.40;5.85;;;26.60;54.30;;;;;;5019032;28;20036;-71
2022/08/05 01:52:19;;;;;;;12.68;5.88;;;26.60;54.50;;;;;;5005292;28;20059;-72
2022/08/05 01:54:50;;;;;;;8.52;5.45;;;26.70;54.40;;;;;;5027940;28;20517;-72
2022/08/05 01:57:26;;;;;;;13.27;6.07;;;26.60;54.60;;;;;;5023974;28;20091;-71
2022/08/05 02:00:00;;;;;;;9.60;5.97;;;26.80;54.50;;;;;;5025077;28;20108;-72
2022/08/05 02:02:29;;;;;;;15.20;5.75;;;26.80;54.20;;;;;;5026210;28;20025;-72
2022/08/05 02:05:00;;;;;;;13.45;5.07;;;26.80;54.30;;;;;;5021580;28;20026;-72
2022/08/05 02:07:26;;;;;;;9.13;4.78;;;26.80;54.60;;;;;;5006167;28;20026;-72
2022/08/05 02:09:52;;;;;;;12.40;5.18;;;26.30;55.70;;;;;;5029511;28;20130;-72
2022/08/05 02:12:34;;;;;;;10.07;4.63;;;26.10;56.40;;;;;;5024793;28;20159;-73
2022/08/05 02:15:18;;;;;;;13.82;4.53;;;26.00;56.60;;;;;;5026495;28;20032;-72
2022/08/05 02:17:51;;;;;;;13.65;4.60;;;26.20;56.50;;;;;;5022999;28;20029;-73
2022/08/05 02:20:29;;;;;;;11.95;4.13;;;26.10;56.60;;;;;;5029372;28;20443;-73
2022/08/05 02:23:03;;;;;;;8.80;4.55;;;26.00;57.00;;;;;;5028477;28;20030;-71
2022/08/05 02:25:33;;;;;;;8.05;4.65;;;25.90;57.30;;;;;;5010727;28;20547;-72
2022/08/05 02:28:02;;;;;;;11.45;4.10;;;25.80;57.40;;;;;;5010584;28;20419;-72
2022/08/05 02:30:35;;;;;;;7.32;4.10;;;25.80;57.70;;;;;;5012063;28;20091;-72
2022/08/05 02:33:02;;;;;;;8.85;4.28;;;25.90;57.60;;;;;;5012175;28;20076;-72
2022/08/05 02:35:31;;;;;;;12.52;4.45;;;25.90;57.60;;;;;;5011805;28;20026;-72
2022/08/05 02:37:58;;;;;;;8.43;3.78;;;25.80;57.60;;;;;;5011859;28;20030;-72
2022/08/05 02:40:25;;;;;;;9.38;3.72;;;25.90;57.50;;;;;;5011975;28;20052;-71
2022/08/05 02:42:53;;;;;;;13.43;3.85;;;25.90;57.30;;;;;;4994313;28;20034;-72
2022/08/05 02:45:21;;;;;;;9.57;3.90;;;25.70;57.90;;;;;;5011284;28;20041;-72
2022/08/05 02:47:48;;;;;;;6.60;3.63;;;25.50;58.60;;;;;;5010719;28;20022;-72
2022/08/05 02:50:14;;;;;;;6.85;3.22;;;25.60;58.70;;;;;;5017803;28;20028;-71
2022/08/05 02:52:43;;;;;;;7.13;3.85;;;25.60;58.80;;;;;;5028138;28;20108;-72
2022/08/05 02:55:09;;;;;;;8.65;3.70;;;25.50;58.70;;;;;;5029373;28;20038;-72
2022/08/05 02:57:38;;;;;;;10.65;4.20;;;25.50;58.80;;;;;;5007086;28;20503;-72
2022/08/05 03:00:05;;;;;;;9.55;3.50;;;25.50;58.90;;;;;;4995050;28;20026;-71
2022/08/05 03:02:35;;;;;;;11.80;3.42;;;25.50;59.00;;;;;;5010812;28;20033;-72
2022/08/05 03:05:03;;;;;;;8.68;4.53;;;25.50;59.20;;;;;;5035412;28;20037;-71
2022/08/05 03:07:29;;;;;;;5.50;2.97;;;25.40;59.30;;;;;;5013795;28;20056;-72
2022/08/05 03:09:56;;;;;;;10.52;3.67;;;25.30;59.60;;;;;;5033572;28;20620;-73
2022/08/05 03:12:36;;;;;;;13.82;3.63;;;25.30;59.80;;;;;;5031858;28;20025;-71
2022/08/05 03:15:07;;;;;;;7.93;3.28;;;25.60;59.10;;;;;;5030545;28;20037;-72
2022/08/05 03:17:33;;;;;;;6.75;3.42;;;25.70;58.70;;;;;;5032516;28;20033;-72
2022/08/05 03:19:59;;;;;;;6.18;3.50;;;25.80;58.20;;;;;;5035005;28;20029;-71
2022/08/05 03:22:25;;;;;;;5.53;3.42;;;26.00;58.00;;;;;;5029214;28;20083;-72
2022/08/05 03:24:51;;;;;;;7.57;3.60;;;26.10;57.60;;;;;;5035068;28;20390;-71
2022/08/05 03:27:19;;;;;;;5.68;3.40;;;26.20;57.40;;;;;;5027432;28;20022;-71
2022/08/05 03:29:45;;;;;;;10.30;4.00;;;26.10;57.40;;;;;;5034801;28;20025;-73
2022/08/05 03:32:14;;;;;;;7.82;3.08;;;26.10;57.40;;;;;;5029218;28;20104;-72
2022/08/05 03:34:40;;;;;;;6.50;3.42;;;26.20;57.30;;;;;;5033905;28;20397;-71
2022/08/05 03:37:06;;;;;;;10.02;3.75;;;26.20;57.20;;;;;;5029743;28;20053;-72
2022/08/05 03:39:32;;;;;;;7.60;3.72;;;26.30;57.10;;;;;;5034887;28;20135;-72
2022/08/05 03:41:58;;;;;;;7.45;3.58;;;26.30;56.90;;;;;;5025975;28;20048;-72
2022/08/05 03:44:24;;;;;;;8.95;3.60;;;26.40;56.50;;;;;;5021733;28;20026;-72
2022/08/05 03:46:50;;;;;;;11.32;3.58;;;26.40;56.40;;;;;;5031824;28;20025;-72
2022/08/05 03:49:16;;;;;;;8.90;3.65;;;26.50;56.50;;;;;;5025884;28;20060;-71
2022/08/05 03:51:55;;;;;;;5.50;3.17;;;26.50;56.20;;;;;;5030885;28;20489;-72
2022/08/05 03:54:33;;;;;;;13.55;5.22;;;26.60;56.20;;;;;;5011185;28;20021;-71
2022/08/05 03:57:02;;;;;;;7.43;3.95;;;26.60;56.00;;;;;;5026093;28;20041;-72
2022/08/05 03:59:40;;;;;;;6.50;3.15;;;26.60;56.10;;;;;;5012432;28;20029;-71
2022/08/05 04:02:07;;;;;;;11.90;3.88;;;26.60;56.10;;;;;;5032702;28;20033;-72
2022/08/05 04:04:34;;;;;;;5.60;3.38;;;26.50;56.20;;;;;;5028525;28;20021;-72
2022/08/05 04:07:01;;;;;;;8.65;3.38;;;26.50;56.40;;;;;;5032807;28;20080;-71
2022/08/05 04:09:28;;;;;;;5.78;3.38;;;26.40;56.40;;;;;;5029048;28;20026;-72
2022/08/05 04:11:55;;;;;;;5.68;3.30;;;26.40;56.40;;;;;;5030716;28;20132;-72
2022/08/05 04:14:21;;;;;;;10.00;3.42;;;26.40;56.50;;;;;;5029421;28;20029;-72
2022/08/05 04:16:47;;;;;;;9.18;3.50;;;26.40;56.60;;;;;;5033954;28;20079;-72
2022/08/05 04:19:13;;;;;;;7.68;4.55;;;26.50;56.20;;;;;;5028627;28;20033;-72
2022/08/05 04:21:40;;;;;;;8.10;4.47;;;26.50;56.30;;;;;;5034058;28;20048;-71
2022/08/05 04:24:06;;;;;;;8.32;4.22;;;26.50;56.20;;;;;;5028909;28;20018;-71
2022/08/05 04:26:32;;;;;;;5.18;3.30;;;26.40;56.50;;;;;;5028704;28;20032;-71
2022/08/05 04:28:59;;;;;;;7.85;3.85;;;26.40;56.70;;;;;;5029977;28;20060;-72
2022/08/05 04:31:25;;;;;;;8.02;3.58;;;26.40;56.80;;;;;;5026670;28;20031;-72
2022/08/05 04:33:51;;;;;;;8.55;3.30;;;26.40;57.00;;;;;;5031187;28;20079;-72
2022/08/05 04:36:17;;;;;;;4.97;3.40;;;26.30;57.10;;;;;;5030026;28;20026;-71
2022/08/05 04:38:43;;;;;;;9.50;3.17;;;26.40;57.00;;;;;;5028024;28;20044;-71
2022/08/05 04:41:09;;;;;;;5.88;3.60;;;26.40;57.00;;;;;;4994210;28;20037;-71
2022/08/05 04:43:36;;;;;;;6.38;3.30;;;26.30;57.10;;;;;;5027925;28;20394;-71
2022/08/05 04:46:03;;;;;;;6.63;3.47;;;26.40;57.30;;;;;;5032076;28;20036;-71
2022/08/05 04:48:29;;;;;;;6.38;3.80;;;26.40;57.20;;;;;;5028561;28;20021;-72
2022/08/05 04:50:55;;;;;;;13.00;3.55;;;26.30;57.50;;;;;;5032234;28;20079;-71
2022/08/05 04:53:21;;;;;;;7.53;3.90;;;26.30;57.90;;;;;;5027843;28;20052;-72
2022/08/05 04:55:47;;;;;;;6.55;4.05;;;26.20;57.80;;;;;;5032327;28;20482;-72
2022/08/05 04:58:15;;;;;;;5.95;3.47;;;26.20;57.60;;;;;;5025700;28;20072;-71
2022/08/05 05:00:42;;;;;;;6.88;3.88;;;26.40;57.30;;;;;;5033355;28;20029;-72
2022/08/05 05:03:08;;;;;;;9.20;3.58;;;26.50;57.10;;;;;;5026445;28;20029;-71
2022/08/05 05:05:35;;;;;;;7.72;3.58;;;26.40;57.30;;;;;;5031671;28;20032;-72
2022/08/05 05:08:01;;;;;;;8.95;3.60;;;26.40;57.20;;;;;;5027781;28;20112;-71
2022/08/05 05:10:29;;;;;;;8.25;3.55;;;26.50;57.10;;;;;;5021289;28;20065;-71
2022/08/05 05:12:55;;;;;;;7.72;3.88;;;26.50;57.30;;;;;;5029907;28;20034;-71
2022/08/05 05:15:21;;;;;;;4.78;3.50;;;26.50;57.20;;;;;;5026562;28;20084;-71
2022/08/05 05:17:47;;;;;;;6.55;3.75;;;26.50;57.40;;;;;;5032593;28;20399;-72
2022/08/05 05:20:13;;;;;;;6.20;3.63;;;26.50;57.50;;;;;;5023899;23;20025;-69
2022/08/05 05:22:39;;;;;;;10.70;3.78;;;26.40;58.00;;;;;;5029122;28;20034;-68
2022/08/05 05:25:06;;;;;;;7.22;3.80;;;26.30;58.20;;;;;;5030222;28;20028;-69
2022/08/05 05:27:33;;;;;;;9.13;3.88;;;26.40;58.30;;;;;;5031731;28;20116;-69
2022/08/05 05:29:59;;;;;;;8.85;3.60;;;26.30;58.50;;;;;;5030263;28;20021;-69
2022/08/05 05:32:25;;;;;;;8.50;3.67;;;26.40;58.20;;;;;;5032712;28;20029;-69
2022/08/05 05:34:51;;;;;;;6.50;3.40;;;26.50;58.30;;;;;;5023322;28;20029;-68
2022/08/05 05:37:17;;;;;;;6.90;3.65;;;26.50;57.80;;;;;;5032339;28;20037;-68
2022/08/05 05:39:43;;;;;;;6.43;3.30;;;26.50;57.70;;;;;;5029423;28;20029;-68
2022/08/05 05:42:09;;;;;;;6.40;3.63;;;26.70;57.50;;;;;;5032376;28;20033;-68
2022/08/05 05:44:35;;;;;;;9.43;3.88;;;26.70;57.90;;;;;;5016304;28;20036;-69
2022/08/05 05:47:00;;;;;;;9.23;3.60;;;26.70;57.90;;;;;;5044164;28;20032;-68
2022/08/05 05:49:27;;;;;;;8.57;3.83;;;26.70;57.70;;;;;;5007755;28;20030;-69
2022/08/05 05:51:53;;;;;;;16.33;4.07;;;26.70;57.80;;;;;;5024263;28;20036;-69
2022/08/05 05:54:19;;;;;;;7.20;3.53;;;26.70;57.50;;;;;;5032150;28;20029;-69
2022/08/05 05:56:46;;;;;;;6.70;3.88;;;26.70;57.90;;;;;;5021878;28;20434;-69
2022/08/05 05:59:11;;;;;;;12.80;4.10;;;26.80;57.50;;;;;;5025492;28;20025;-69
2022/08/05 06:01:40;;;;;;;9.70;3.60;;;26.70;57.90;;;;;;5021913;28;20080;-69
2022/08/05 06:04:10;;;;;;;13.73;4.00;;;26.70;57.70;;;;;;5031006;28;20434;-69
2022/08/05 06:06:36;;;;;;;9.02;4.72;;;26.70;58.30;;;;;;5021979;28;20362;-69
2022/08/05 06:09:06;;;;;;;8.82;3.55;;;26.60;58.30;;;;;;5028714;28;20021;-69
2022/08/05 06:11:32;;;;;;;7.95;3.83;;;26.60;58.30;;;;;;5019184;28;20056;-69
2022/08/05 06:14:01;;;;;;;10.05;3.78;;;26.60;58.70;;;;;;5011720;28;20025;-68
2022/08/05 06:16:27;;;;;;;10.05;3.60;;;26.50;58.80;;;;;;5024619;28;20056;-69
2022/08/05 06:18:53;;;;;;;14.23;4.07;;;26.60;58.70;;;;;;5029789;28;20029;-69
2022/08/05 06:21:19;;;;;;;6.47;3.92;;;26.60;59.00;;;;;;5015290;28;20437;-69
2022/08/05 06:23:45;;;;;;;6.55;3.38;;;26.50;58.90;;;;;;5024886;28;20440;-68
2022/08/05 06:26:11;;;;;;;14.35;3.90;;;26.50;59.20;;;;;;5022477;28;20496;-69
2022/08/05 06:28:37;;;;;;;7.57;3.20;;;26.50;59.70;;;;;;5020896;28;20382;-69
2022/08/05 06:31:03;;;;;;;14.57;3.63;;;26.50;59.60;;;;;;5028692;28;20025;-69
2022/08/05 06:33:29;;;;;;;8.65;3.25;;;26.50;59.80;;;;;;5021595;28;20099;-69
2022/08/05 06:35:55;;;;;;;5.45;3.00;;;26.60;59.60;;;;;;5026149;28;20553;-69
2022/08/05 06:38:20;;;;;;;6.97;3.22;;;26.50;60.10;;;;;;5015504;28;20030;-69
2022/08/05 06:40:46;;;;;;;8.73;2.85;;;26.60;60.20;;;;;;5030293;28;20032;-69
2022/08/05 06:43:12;;;;;;;7.75;3.20;;;26.60;60.00;;;;;;5022703;28;20025;-69
2022/08/05 06:45:38;;;;;;;6.80;2.53;;;26.60;60.10;;;;;;5029328;28;20551;-69
2022/08/05 06:48:04;;;;;;;8.02;4.25;;;26.70;59.80;;;;;;5031461;28;20561;-69
2022/08/05 06:50:30;;;;;;;7.80;3.00;;;26.70;60.10;;;;;;5013081;28;20163;-69
2022/08/05 06:52:55;;;;;;;7.72;2.90;;;26.60;60.50;;;;;;5011636;28;20048;-69
2022/08/05 06:55:21;;;;;;;7.38;3.38;;;26.60;60.50;;;;;;5022810;28;20118;-69
2022/08/05 06:57:47;;;;;;;7.85;2.88;;;26.60;60.40;;;;;;5022362;28;20062;-69
2022/08/05 07:00:13;;;;;;;6.53;2.92;;;26.60;60.70;;;;;;5029612;28;20028;-69
2022/08/05 07:02:43;;;;;;;6.05;2.95;;;26.60;60.90;;;;;;5021111;28;20124;-69
2022/08/05 07:05:10;;;;;;;4.28;2.92;;;26.70;60.50;;;;;;5021127;28;20051;-68
2022/08/05 07:07:37;;;;;;;7.63;2.58;;;26.70;60.50;;;;;;5005827;28;20026;-69
2022/08/05 07:10:03;;;;;;;5.60;2.63;;;26.60;60.60;;;;;;5029641;28;20120;-69
2022/08/05 07:17:57;;;;;;;4.68;2.50;;;26.70;60.60;;;;;;5011790;28;20483;-69
2022/08/05 07:20:23;;;;;;;4.90;2.80;;;26.70;60.30;;;;;;5028913;28;20028;-69
2022/08/05 07:22:49;;;;;;;7.63;2.53;;;26.80;60.40;;;;;;5028586;28;20454;-68
2022/08/05 07:25:15;;;;;;;7.18;2.75;;;26.70;60.50;;;;;;5030838;28;20105;-69
2022/08/05 07:27:41;;;;;;;8.85;3.10;;;26.70;60.90;;;;;;5030349;28;20041;-68
2022/08/05 07:30:07;;;;;;;7.88;3.40;;;26.50;61.30;;;;;;5029087;28;20470;-68
2022/08/05 07:32:37;;;;;;;12.57;3.92;;;26.50;61.50;;;;;;5022836;28;20029;-68
2022/08/05 07:35:13;;;;;;;6.18;3.50;;;26.40;62.00;;;;;;5029211;28;20025;-68
2022/08/05 07:37:39;;;;;;;7.82;3.40;;;26.10;63.10;;;;;;5013284;28;20041;-68
2022/08/05 07:40:06;;;;;;;8.57;3.70;;;26.00;63.90;;;;;;5030777;28;20025;-69
2022/08/05 07:42:34;;;;;;;8.00;3.42;;;26.00;64.30;;;;;;5029915;28;20026;-68
2022/08/05 07:45:00;;;;;;;6.43;3.75;;;25.70;64.60;;;;;;5033841;28;20405;-68
2022/08/05 07:47:26;;;;;;;6.47;2.83;;;25.80;64.70;;;;;;5025304;28;20025;-69
2022/08/05 07:49:52;;;;;;;8.77;3.40;;;25.80;64.50;;;;;;5033541;28;20135;-68
2022/08/05 07:52:19;;;;;;;6.55;2.95;;;25.80;64.30;;;;;;5031656;28;20101;-69
2022/08/05 07:54:45;;;;;;;7.10;3.40;;;25.50;64.80;;;;;;5032098;28;20034;-72
2022/08/05 07:57:11;;;;;;;7.95;2.97;;;25.60;65.00;;;;;;5032769;28;20504;-71
2022/08/05 07:59:37;;;;;;;7.68;3.33;;;25.50;64.80;;;;;;5033065;28;20029;-70
2022/08/05 08:02:03;;;;;;;6.30;3.38;;;25.60;64.50;;;;;;5027947;28;20539;-70
2022/08/05 08:04:29;;;;;;;6.65;3.40;;;25.60;64.60;;;;;;5033051;28;20069;-70
2022/08/05 08:06:55;;;;;;;9.93;2.97;;;25.70;64.30;;;;;;5035942;28;20025;-71
2022/08/05 08:09:23;;;;;;;5.40;3.15;;;25.70;63.80;;;;;;5029621;28;20029;-71
2022/08/05 08:11:49;;;;;;;9.82;3.65;;;25.90;63.60;;;;;;5013766;28;20034;-71
2022/08/05 08:14:14;;;;;;;8.93;3.20;;;26.00;63.20;;;;;;5031278;28;20033;-71
2022/08/05 08:16:40;;;;;;;10.35;3.08;;;26.10;63.00;;;;;;5030264;28;20030;-71
2022/08/05 08:19:07;;;;;;;7.30;3.33;;;26.20;62.90;;;;;;5030721;28;20041;-72
2022/08/05 08:21:33;;;;;;;4.60;2.70;;;26.20;62.90;;;;;;5029286;28;20482;-71
2022/08/05 08:23:59;;;;;;;7.45;3.50;;;26.30;62.60;;;;;;5032187;28;20099;-70
2022/08/05 08:26:25;;;;;;;6.63;3.05;;;26.40;63.10;;;;;;5031125;28;20034;-69
2022/08/05 08:28:50;;;;;;;7.20;3.05;;;26.30;62.20;;;;;;5014276;28;20033;-69
2022/08/05 08:31:19;;;;;;;7.22;2.80;;;26.30;63.00;;;;;;5030814;28;20022;-70
2022/08/05 08:33:45;;;;;;;4.18;2.60;;;25.80;62.40;;;;;;5027744;28;20042;-69
2022/08/05 08:36:11;;;;;;;4.72;2.40;;;25.60;63.00;;;;;;5026289;28;20041;-69
2022/08/05 08:38:37;;;;;;;8.30;3.08;;;25.90;63.00;;;;;;5028185;28;20079;-69
2022/08/05 08:41:09;;;;;;;5.72;2.50;;;26.10;63.20;;;;;;5030492;28;20041;-71
2022/08/05 08:43:36;;;;;;;8.50;2.78;;;26.20;62.60;;;;;;5032258;28;20084;-69
2022/08/05 08:46:03;;;;;;;6.55;2.70;;;26.20;61.50;;;;;;5031595;28;20056;-69
2022/08/05 08:48:31;;;;;;;8.23;2.38;;;25.80;61.90;;;;;;5033148;28;20026;-69
2022/08/05 08:50:59;;;;;;;9.40;2.70;;;25.70;61.90;;;;;;5030968;28;20052;-68
2022/08/05 08:53:27;;;;;;;6.25;2.42;;;25.90;62.40;;;;;;5013622;28;20037;-69
2022/08/05 08:55:53;;;;;;;5.35;2.22;;;25.70;61.90;;;;;;5030970;28;20032;-69
2022/08/05 08:58:19;;;;;;;5.35;2.65;;;25.60;62.30;;;;;;5032177;28;20034;-69
2022/08/05 09:00:47;;;;;;;8.13;4.60;;;25.50;62.90;;;;;;5027404;28;20041;-69
2022/08/05 09:03:13;;;;;;;6.18;3.03;;;25.70;62.60;;;;;;5037373;28;20385;-69
2022/08/05 09:05:38;;;;;;;7.32;3.45;;;25.80;62.30;;;;;;5018406;28;20033;-69
2022/08/05 09:08:04;;;;;;;6.35;3.20;;;25.90;62.30;;;;;;5015030;28;20025;-70
2022/08/05 09:10:30;;;;;;;14.57;3.38;;;26.10;62.50;;;;;;5025670;28;20025;-70
2022/08/05 09:12:56;;;;;;;30.65;5.18;;;26.20;63.40;;;;;;5028876;28;22296;-69
2022/08/05 09:15:22;;;;;;;12.85;3.83;;;26.30;65.80;;;;;;5023138;28;20437;-69
2022/08/05 09:17:49;;;;;;;17.92;4.70;;;26.30;63.80;;;;;;5030440;28;20642;-70
2022/08/05 09:20:16;;;;;;;27.58;6.43;;;26.40;63.40;;;;;;5029464;28;20040;-70
2022/08/05 09:23:12;;;;;;;31.00;5.90;;;26.50;63.30;;;;;;5030742;28;20083;-70
2022/08/05 09:25:40;;;;;;;30.70;5.88;;;26.50;63.20;;;;;;5024594;28;20125;-70
2022/08/05 09:28:15;;;;;;;26.85;5.72;;;26.50;63.30;;;;;;5032479;28;20048;-70
2022/08/05 09:30:55;;;;;;;17.65;3.92;;;26.50;63.50;;;;;;5030615;28;20088;-70
2022/08/05 09:33:23;;;;;;;18.77;3.90;;;26.40;62.70;;;;;;5014314;28;20025;-72
2022/08/05 09:36:02;;;;;;;14.88;3.97;;;26.40;62.50;;;;;;5014443;28;20035;-71
2022/08/05 09:38:28;;;;;;;;;;;26.30;64.00;;;;;;5013067;28;20037;-72
2022/08/05 09:41:05;;;;;;;11.98;2.75;;;26.40;62.20;;;;;;5014862;28;19908;-71
2022/08/05 09:43:33;;;;;;;7.53;2.38;;;26.30;62.70;;;;;;5032758;28;20026;-72
2022/08/05 09:46:00;;;;;;;8.02;2.70;;;26.40;62.50;;;;;;5014293;28;20036;-72
2022/08/05 09:48:31;;;;;;;8.70;3.03;;;26.40;62.50;;;;;;5031359;28;20053;-71
2022/08/05 09:50:59;;;;;;;8.90;2.42;;;26.50;62.00;;;;;;5014710;28;20060;-72
2022/08/05 09:53:27;;;;;;;5.43;2.50;;;26.50;62.10;;;;;;5032247;28;20030;-72
2022/08/05 09:55:58;;;;;;;4.57;2.72;;;26.60;61.90;;;;;;5031045;28;20103;-73
2022/08/05 09:58:27;;;;;;;7.30;2.50;;;26.60;61.70;;;;;;4998399;28;20063;-73
2022/08/05 10:01:01;;;;;;;6.55;2.88;;;26.60;61.90;;;;;;4997933;28;20052;-72
2022/08/05 10:03:28;;;;;;;6.95;2.42;;;26.60;61.90;;;;;;5030598;28;20508;-72
2022/08/05 10:06:07;;;;;;;5.07;2.15;;;26.50;61.70;;;;;;4998007;28;20029;-72
2022/08/05 10:08:34;;;;;;;4.28;2.00;;;26.60;61.70;;;;;;5031357;28;20034;-72
2022/08/05 10:11:03;;;;;;;8.27;2.42;;;26.60;62.20;;;;;;5031060;28;20103;-72
2022/08/05 10:13:35;;;;;;;6.53;2.47;;;26.60;62.10;;;;;;5030929;28;20041;-71
2022/08/05 10:16:04;;;;;;;6.35;2.30;;;26.60;61.70;;;;;;5013913;28;20519;-71
2022/08/05 10:18:36;;;;;;;7.40;2.47;;;26.70;62.10;;;;;;4998205;28;20120;-72
2022/08/05 10:21:05;;;;;;;3.63;2.17;;;26.70;62.70;;;;;;5014256;28;20038;-71
2022/08/05 10:23:33;;;;;;;4.87;2.20;;;26.60;62.20;;;;;;5030586;28;20030;-72
2022/08/05 10:26:03;;;;;;;3.38;2.15;;;26.70;62.20;;;;;;5014183;28;20026;-72
2022/08/05 10:28:29;;;;;;;6.18;2.30;;;26.70;62.20;;;;;;5014531;28;20044;-72
2022/08/05 10:30:57;;;;;;;7.45;2.45;;;26.60;62.40;;;;;;5030338;28;20072;-71
2022/08/05 10:33:25;;;;;;;5.65;2.30;;;26.70;62.00;;;;;;5030718;28;20470;-71
2022/08/05 10:35:52;;;;;;;5.88;3.15;;;26.70;61.90;;;;;;5030128;28;20245;-71
2022/08/05 10:38:23;;;;;;;5.43;2.50;;;26.70;62.30;;;;;;5030710;28;20105;-73
2022/08/05 10:40:50;;;;;;;6.95;2.78;;;26.70;62.00;;;;;;5013913;28;20452;-72
2022/08/05 10:43:44;;;;;;;6.25;2.53;;;26.70;62.50;;;;;;5031508;28;20040;-73
2022/08/05 10:46:12;;;;;;;7.78;3.08;;;26.70;62.20;;;;;;5031381;28;20060;-73
2022/08/05 10:48:40;;;;;;;5.97;3.00;;;26.70;62.20;;;;;;5031625;28;20105;-72
2022/08/05 10:51:14;;;;;;;6.93;2.50;;;26.70;63.70;;;;;;5012626;28;20512;-72
2022/08/05 10:53:49;;;;;;;5.85;2.70;;;26.70;63.20;;;;;;5013742;28;20432;-72
2022/08/05 10:56:24;;;;;;;4.82;2.58;;;26.70;62.80;;;;;;5027903;28;20061;-73
2022/08/05 10:58:53;;;;;;;4.30;2.30;;;26.70;62.40;;;;;;5014190;28;20037;-72
2022/08/05 11:01:33;;;;;;;7.35;2.50;;;26.70;62.40;;;;;;5030835;28;20044;-72
2022/08/05 11:04:09;;;;;;;5.43;2.65;;;26.80;63.10;;;;;;5013200;28;20033;-72
2022/08/05 11:07:03;;;;;;;8.35;3.10;;;26.70;63.90;;;;;;5026812;28;20034;-72
2022/08/05 11:09:48;;;;;;;6.25;2.78;;;26.70;63.90;;;;;;5029617;28;20079;-72
2022/08/05 11:12:40;;;;;;;6.90;3.10;;;26.70;63.50;;;;;;5027797;28;20457;-71
2022/08/05 11:15:17;;;;;;;59.15;39.28;;;26.70;62.60;;;;;;5027201;28;20041;-71
2022/08/05 11:17:45;;;;;;;97.32;66.72;;;26.70;63.10;;;;;;5031897;28;20029;-71
2022/08/05 11:20:30;;;;;;;91.68;64.63;;;26.70;62.80;;;;;;5033460;28;20458;-71
2022/08/05 11:22:56;;;;;;;58.30;40.40;;;26.80;62.30;;;;;;4991553;23;20136;-71
2022/08/05 11:25:42;;;;;;;45.15;27.45;;;26.80;62.50;;;;;;5011888;28;20096;-70
2022/08/05 11:28:11;;;;;;;30.67;20.70;;;26.70;61.90;;;;;;4996876;28;20057;-71
2022/08/05 11:30:55;;;;;;;29.13;18.13;;;26.70;61.60;;;;;;5013574;28;20034;-71
2022/08/05 11:33:36;;;;;;;32.05;18.50;;;26.70;61.90;;;;;;5012702;28;20034;-72
2022/08/05 11:36:06;;;;;;;25.15;14.07;;;26.70;61.90;;;;;;5013944;28;20437;-71
2022/08/05 11:38:41;;;;;;;20.77;12.07;;;26.70;61.50;;;;;;5013806;28;20108;-72
2022/08/05 11:41:21;;;;;;;23.13;13.88;;;26.70;61.50;;;;;;5015033;28;20057;-71
2022/08/05 11:44:09;;;;;;;15.60;8.70;;;26.70;61.50;;;;;;5014880;28;20065;-71
2022/08/05 11:46:40;;;;;;;19.73;12.13;;;26.70;61.30;;;;;;5014512;28;20026;-71
2022/08/05 11:49:10;;;;;;;18.85;10.52;;;26.70;61.20;;;;;;5015031;28;20339;-72
2022/08/05 11:51:36;;;;;;;17.58;8.57;;;26.70;61.10;;;;;;5014569;28;20049;-72
2022/08/05 11:54:02;;;;;;;12.57;7.15;;;26.70;61.30;;;;;;5013408;28;20026;-71
2022/08/05 11:56:50;;;;;;;15.65;7.97;;;26.70;61.40;;;;;;4996434;28;20053;-72
2022/08/05 11:59:21;;;;;;;12.13;6.88;;;26.70;61.10;;;;;;4997513;28;20073;-71
2022/08/05 12:01:56;;;;;;;12.05;6.70;;;26.70;61.00;;;;;;5013432;28;20483;-72
2022/08/05 12:04:23;;;;;;;11.57;5.97;;;26.70;61.10;;;;;;5014493;28;20030;-72
2022/08/05 12:06:49;;;;;;;9.32;5.13;;;26.70;61.10;;;;;;5013397;28;20425;-71
2022/08/05 12:09:19;;;;;;;10.52;4.07;;;26.80;61.10;;;;;;5014588;28;20117;-71
2022/08/05 12:11:45;;;;;;;;;;;26.80;61.00;;;;;;5014882;28;20064;-71
2022/08/05 12:14:11;;;;;;;7.70;4.40;;;26.80;61.00;;;;;;5014456;28;20384;-72
2022/08/05 12:16:39;;;;;;;8.25;3.85;;;26.80;61.10;;;;;;5014145;28;20026;-71
2022/08/05 12:19:06;;;;;;;8.32;4.57;;;26.90;60.90;;;;;;5029877;28;20080;-72
2022/08/05 12:21:35;;;;;;;6.28;3.83;;;26.80;61.40;;;;;;5014030;28;20029;-71
2022/08/05 12:24:16;;;;;;;8.88;4.00;;;26.90;61.40;;;;;;5014359;28;20538;-71
2022/08/05 12:26:48;;;;;;;8.18;3.47;;;27.00;61.10;;;;;;5028238;28;20038;-71
2022/08/05 12:29:22;;;;;;;12.35;4.03;;;26.90;60.80;;;;;;5014384;28;20018;-71
2022/08/05 12:31:59;;;;;;;9.05;3.33;;;26.90;60.60;;;;;;5013148;28;20037;-72
2022/08/05 12:34:32;;;;;;;24.20;7.72;;;26.90;61.00;;;;;;5013231;28;20117;-71
2022/08/05 12:37:00;;;;;;;15.38;5.32;;;26.90;60.80;;;;;;5012778;28;20061;-71
2022/08/05 12:39:27;;;;;;;11.10;3.85;;;26.90;60.00;;;;;;5014088;28;20030;-71
2022/08/05 12:41:58;;;;;;;8.95;3.28;;;26.90;60.40;;;;;;5014249;28;20041;-71
2022/08/05 12:44:25;;;;;;;7.38;2.70;;;27.00;60.20;;;;;;5012762;28;20030;-72
2022/08/05 12:46:52;;;;;;;6.35;3.00;;;27.00;60.90;;;;;;5010924;28;20128;-71
2022/08/05 12:49:18;;;;;;;9.13;2.80;;;26.90;59.80;;;;;;5013670;28;20022;-71
2022/08/05 12:51:51;;;;;;;5.72;2.78;;;26.80;59.80;;;;;;5013800;28;20079;-71
2022/08/05 12:54:22;;;;;;;7.28;3.15;;;27.00;59.80;;;;;;5012691;28;20056;-71
2022/08/05 12:56:57;;;;;;;5.60;2.80;;;27.00;59.70;;;;;;5012222;28;20497;-71